Time;durP1;ratioP1;P1;durP2;ratioP2;P2;SDS_P1;SDS_P2;PMS_P1;PMS_P2;Temp;Humidity;BMP_temperature;BMP_pressure;BME280_temperature;BME280_humidity;BME280_pressure;Samples;Min_cycle;Max_cycle;Signal;HPM_P1;HPM_P2
2022/07/27 00:01:46;;;;;;;0.20;0.20;;;;;;;14.85;82.91;99654.84;5085624;28;20056;-64
2022/07/27 00:04:12;;;;;;;0.20;0.20;;;;;;;14.91;83.79;99656.34;5085622;28;20024;-65
2022/07/27 00:06:37;;;;;;;0.30;0.30;;;;;;;14.90;84.21;99663.34;5085453;28;20550;-64
2022/07/27 00:09:03;;;;;;;0.40;0.40;;;;;;;14.85;84.09;99660.06;5085528;28;20050;-64
2022/07/27 00:11:28;;;;;;;0.20;0.20;;;;;;;14.84;83.45;99653.16;5085475;28;20025;-64
2022/07/27 00:13:53;;;;;;;0.40;0.40;;;;;;;14.80;82.39;99655.00;5085287;28;20031;-64
2022/07/27 00:16:19;;;;;;;0.30;0.30;;;;;;;14.82;82.45;99650.59;5085137;28;20035;-64
2022/07/27 00:18:44;;;;;;;0.60;0.60;;;;;;;14.82;82.79;99655.81;5085170;28;20048;-64
2022/07/27 00:21:10;;;;;;;0.20;0.20;;;;;;;14.85;83.22;99649.59;5085262;28;20436;-65
2022/07/27 00:23:35;;;;;;;0.20;0.20;;;;;;;14.86;83.15;99659.13;5085052;28;20024;-64
2022/07/27 00:26:01;;;;;;;0.30;0.30;;;;;;;14.89;84.01;99660.81;5084860;28;20021;-64
2022/07/27 00:28:26;;;;;;;0.25;0.25;;;;;;;14.86;83.17;99664.38;5085524;28;20030;-64
2022/07/27 00:30:51;;;;;;;0.40;0.40;;;;;;;14.87;83.78;99653.84;5085200;28;20021;-64
2022/07/27 00:33:16;;;;;;;0.30;0.30;;;;;;;14.87;83.93;99661.69;5085152;28;20474;-64
2022/07/27 00:35:42;;;;;;;0.20;0.20;;;;;;;14.85;83.64;99666.16;5085238;28;20020;-64
2022/07/27 00:38:07;;;;;;;0.20;0.20;;;;;;;14.90;83.72;99663.34;5085075;28;20040;-64
2022/07/27 00:40:33;;;;;;;11.40;1.85;;;;;;;14.85;83.21;99660.06;5085128;28;20028;-64
2022/07/27 00:42:58;;;;;;;0.30;0.30;;;;;;;14.83;83.62;99654.91;5085125;28;20029;-64
2022/07/27 00:45:23;;;;;;;0.30;0.30;;;;;;;14.87;84.31;99659.06;5085209;28;20078;-65
2022/07/27 00:47:49;;;;;;;0.22;0.22;;;;;;;14.87;83.81;99664.31;5085086;28;20017;-64
2022/07/27 00:50:14;;;;;;;0.30;0.30;;;;;;;14.89;84.66;99656.41;5084900;28;20274;-64
2022/07/27 00:52:41;;;;;;;0.30;0.30;;;;;;;14.86;84.27;99660.00;5084968;28;20438;-64
2022/07/27 00:55:07;;;;;;;0.20;0.20;;;;;;;14.87;84.31;99660.88;5084626;28;20391;-65
2022/07/27 00:57:33;;;;;;;0.30;0.30;;;;;;;14.84;83.84;99661.81;5085050;28;20484;-64
2022/07/27 00:59:58;;;;;;;0.20;0.20;;;;;;;14.90;84.39;99670.34;5084980;28;20029;-64
2022/07/27 01:02:25;;;;;;;0.22;0.22;;;;;;;14.89;84.25;99660.81;5084935;28;20024;-64
2022/07/27 01:04:50;;;;;;;0.20;0.20;;;;;;;14.86;84.71;99657.38;5084964;28;20099;-65
2022/07/27 01:07:16;;;;;;;0.30;0.30;;;;;;;14.90;84.43;99657.28;5084992;28;20399;-64
2022/07/27 01:09:57;;;;;;;0.30;0.30;;;;;;;14.83;84.91;99660.13;5085063;28;20024;-64
2022/07/27 01:12:27;;;;;;;0.20;0.20;;;;;;;14.80;84.43;99654.16;5088906;28;20055;-64
2022/07/27 01:14:54;;;;;;;0.43;0.43;;;;;;;14.79;84.22;99661.13;5088566;28;20052;-64
2022/07/27 01:17:19;;;;;;;1.15;1.05;;;;;;;14.77;84.89;99654.25;5088831;28;20024;-64
2022/07/27 01:19:45;;;;;;;0.20;0.20;;;;;;;14.79;84.81;99660.25;5088902;28;20017;-65
2022/07/27 01:22:11;;;;;;;0.30;0.30;;;;;;;14.75;85.23;99651.69;5088572;28;20028;-64
2022/07/27 01:24:37;;;;;;;0.30;0.30;;;;;;;14.71;85.01;99653.56;5088666;28;20063;-64
2022/07/27 01:27:04;;;;;;;0.20;0.20;;;;;;;14.72;85.52;99649.19;5088711;28;20024;-64
2022/07/27 01:29:31;;;;;;;0.22;0.22;;;;;;;14.69;85.52;99646.69;5088726;28;20074;-64
2022/07/27 01:31:57;;;;;;;2.25;2.05;;;;;;;14.65;85.68;99647.72;5088280;28;20059;-64
2022/07/27 01:34:22;;;;;;;0.20;0.20;;;;;;;14.62;85.11;99648.69;5088528;28;20450;-64
2022/07/27 01:36:48;;;;;;;0.28;0.28;;;;;;;14.66;85.80;99646.81;5088369;28;20032;-64
2022/07/27 01:39:15;;;;;;;0.20;0.20;;;;;;;14.60;86.25;99642.69;5088369;28;20021;-64
2022/07/27 01:41:41;;;;;;;0.30;0.30;;;;;;;14.55;86.10;99644.59;5088440;28;20078;-64
2022/07/27 01:44:06;;;;;;;0.28;0.28;;;;;;;14.53;85.95;99641.19;5088216;28;20426;-65
2022/07/27 01:46:32;;;;;;;0.20;0.20;;;;;;;14.53;86.35;99643.81;5088344;28;20024;-64
2022/07/27 01:48:57;;;;;;;0.30;0.30;;;;;;;14.49;86.34;99637.84;5088074;28;20021;-64
2022/07/27 01:51:23;;;;;;;0.30;0.30;;;;;;;14.44;86.32;99637.19;5088105;28;20495;-64
2022/07/27 01:53:48;;;;;;;0.20;0.20;;;;;;;14.42;86.18;99644.22;5087725;28;20611;-64
2022/07/27 01:56:14;;;;;;;0.20;0.20;;;;;;;14.37;86.03;99640.00;5088164;28;20074;-64
2022/07/27 01:58:40;;;;;;;0.20;0.20;;;;;;;14.32;86.42;99630.63;5088245;28;20024;-64
2022/07/27 02:01:06;;;;;;;0.20;0.20;;;;;;;14.31;86.41;99634.16;5087921;28;20328;-64
2022/07/27 02:03:32;;;;;;;0.30;0.30;;;;;;;14.36;86.74;99642.69;5087896;28;20052;-64
2022/07/27 02:05:58;;;;;;;0.20;0.20;;;;;;;14.37;87.20;99632.19;5087729;28;20036;-64
2022/07/27 02:08:23;;;;;;;1.00;1.00;;;;;;;14.32;87.71;99630.63;5087302;28;20048;-64
2022/07/27 02:13:33;;;;;;;0.30;0.30;;;;;;;14.29;87.91;99634.22;5087935;28;20239;-64
2022/07/27 02:15:59;;;;;;;0.30;0.30;;;;;;;14.27;87.52;99628.19;5086416;28;20464;-64
2022/07/27 02:18:25;;;;;;;0.20;0.20;;;;;;;14.23;87.80;99635.28;5087643;28;20035;-64
2022/07/27 02:20:50;;;;;;;0.20;0.20;;;;;;;14.24;87.96;99636.13;5087395;28;20056;-64
2022/07/27 02:23:15;;;;;;;0.30;0.30;;;;;;;14.26;88.09;99642.16;5087579;28;20027;-64
2022/07/27 02:25:41;;;;;;;0.30;0.30;;;;;;;14.21;88.53;99649.28;5087198;28;20028;-64
2022/07/27 02:28:06;;;;;;;0.65;0.65;;;;;;;14.23;88.38;99639.66;5087290;28;20055;-64
2022/07/27 02:30:32;;;;;;;1.98;1.88;;;;;;;14.20;88.82;99645.00;5087428;28;20031;-64
2022/07/27 02:32:57;;;;;;;0.30;0.30;;;;;;;14.20;88.35;99645.81;5087195;28;20086;-64
2022/07/27 02:35:23;;;;;;;0.20;0.20;;;;;;;14.23;88.92;99643.09;5087272;28;20128;-64
2022/07/27 02:37:48;;;;;;;0.30;0.30;;;;;;;14.21;88.60;99642.31;5087146;28;20023;-64
2022/07/27 02:40:15;;;;;;;0.30;0.30;;;;;;;14.24;88.86;99639.59;5087299;28;20384;-64
2022/07/27 02:42:41;;;;;;;0.20;0.20;;;;;;;14.19;88.89;99638.91;5087214;28;20031;-64
2022/07/27 02:45:07;;;;;;;0.20;0.20;;;;;;;14.25;88.69;99641.28;5087326;28;20028;-64
2022/07/27 02:47:33;;;;;;;0.30;0.30;;;;;;;14.25;88.98;99648.25;5086904;28;20021;-64
2022/07/27 02:50:00;;;;;;;0.30;0.30;;;;;;;14.25;88.50;99638.69;5087306;28;20023;-65
2022/07/27 02:52:25;;;;;;;0.30;0.30;;;;;;;14.30;87.71;99643.75;5087136;28;20027;-65
2022/07/27 02:54:51;;;;;;;0.20;0.20;;;;;;;14.36;88.03;99648.75;5086940;28;20044;-64
2022/07/27 02:57:16;;;;;;;0.57;0.57;;;;;;;14.42;87.88;99647.69;5086779;28;20024;-64
2022/07/27 02:59:42;;;;;;;0.30;0.30;;;;;;;14.42;88.58;99641.59;5086806;28;20021;-64
2022/07/27 03:02:07;;;;;;;0.30;0.30;;;;;;;14.45;88.47;99647.56;5086747;28;20052;-64
2022/07/27 03:04:33;;;;;;;0.20;0.20;;;;;;;14.46;88.88;99653.63;5087118;28;20085;-64
2022/07/27 03:06:58;;;;;;;0.30;0.30;;;;;;;14.49;88.91;99661.34;5086371;28;20055;-64
2022/07/27 03:09:23;;;;;;;0.30;0.30;;;;;;;14.49;88.23;99658.72;5087029;28;20024;-64
2022/07/27 03:11:49;;;;;;;0.22;0.22;;;;;;;14.54;87.98;99669.88;5086640;28;20029;-64
2022/07/27 03:14:14;;;;;;;0.30;0.30;;;;;;;14.55;88.35;99662.88;5086612;28;20080;-64
2022/07/27 03:16:39;;;;;;;0.40;0.40;;;;;;;14.63;88.46;99659.06;5086771;28;20024;-64
2022/07/27 03:19:05;;;;;;;0.20;0.20;;;;;;;14.69;88.65;99664.97;5086274;28;20027;-65
2022/07/27 03:21:30;;;;;;;0.20;0.20;;;;;;;14.68;88.66;99660.69;5086594;28;20024;-64
2022/07/27 03:23:56;;;;;;;0.20;0.20;;;;;;;14.70;87.43;99666.69;5086449;28;20016;-64
2022/07/27 03:26:21;;;;;;;0.30;0.30;;;;;;;14.73;87.40;99663.94;5086506;28;20116;-64
2022/07/27 03:28:46;;;;;;;0.20;0.20;;;;;;;14.70;87.43;99659.69;5086288;28;20028;-64
2022/07/27 03:31:12;;;;;;;0.20;0.20;;;;;;;14.79;87.61;99666.34;5086040;28;20020;-64
2022/07/27 03:33:37;;;;;;;0.30;0.30;;;;;;;14.79;88.08;99666.34;5085472;28;20476;-64
2022/07/27 03:36:03;;;;;;;0.20;0.20;;;;;;;14.78;87.51;99661.16;5086229;28;20021;-64
2022/07/27 03:38:28;;;;;;;0.30;0.30;;;;;;;14.88;87.53;99667.78;5086333;28;20043;-64
2022/07/27 03:40:54;;;;;;;0.30;0.30;;;;;;;14.87;87.28;99664.31;5086299;28;20024;-64
2022/07/27 03:43:19;;;;;;;0.52;0.52;;;;;;;14.93;87.45;99671.06;5085845;28;20031;-64
2022/07/27 03:45:45;;;;;;;0.68;0.68;;;;;;;14.99;87.41;99668.22;5086187;28;20036;-65
2022/07/27 03:48:10;;;;;;;2.65;1.48;;;;;;;15.07;87.85;99661.84;5085830;28;20440;-64
2022/07/27 03:50:35;;;;;;;0.30;0.30;;;;;;;15.09;87.99;99673.94;5085886;28;20074;-64
2022/07/27 03:53:01;;;;;;;0.22;0.22;;;;;;;15.11;87.23;99671.28;5085714;28;20440;-64
2022/07/27 03:55:27;;;;;;;1.45;1.35;;;;;;;15.07;86.87;99662.69;5086103;28;20447;-64
2022/07/27 03:57:53;;;;;;;0.22;0.22;;;;;;;15.20;86.62;99676.13;5085676;28;20013;-64
2022/07/27 04:00:19;;;;;;;0.30;0.30;;;;;;;15.28;86.59;99681.06;5085559;28;20035;-64
2022/07/27 04:02:45;;;;;;;0.20;0.20;;;;;;;15.31;87.23;99678.31;5085541;28;20083;-64
2022/07/27 04:05:10;;;;;;;0.45;0.45;;;;;;;15.35;86.36;99665.97;5085647;28;20043;-64
2022/07/27 04:07:36;;;;;;;0.20;0.20;;;;;;;15.49;86.61;99681.94;5085619;28;20445;-64
2022/07/27 04:10:03;;;;;;;0.20;0.20;;;;;;;15.55;86.74;99680.00;5085429;28;20448;-64
2022/07/27 04:12:28;;;;;;;0.20;0.20;;;;;;;15.61;86.83;99680.59;5085388;28;20032;-64
2022/07/27 04:14:53;;;;;;;0.20;0.20;;;;;;;15.76;87.85;99678.25;5085920;28;20055;-64
2022/07/27 04:17:19;;;;;;;0.20;0.20;;;;;;;15.84;87.97;99681.41;5085249;28;20016;-65
2022/07/27 04:19:44;;;;;;;0.20;0.20;;;;;;;15.97;88.05;99680.91;5085501;28;20054;-64
2022/07/27 04:22:09;;;;;;;0.20;0.20;;;;;;;15.97;88.10;99681.75;5085440;28;20024;-64
2022/07/27 04:24:35;;;;;;;0.20;0.20;;;;;;;15.97;88.21;99686.13;5085372;28;20040;-65
2022/07/27 04:27:00;;;;;;;0.20;0.20;;;;;;;16.00;86.20;99693.88;5084934;28;20078;-65
2022/07/27 04:29:26;;;;;;;0.30;0.30;;;;;;;16.06;87.36;99695.38;5085529;28;20067;-64
2022/07/27 04:31:51;;;;;;;0.20;0.20;;;;;;;16.14;87.37;99693.28;5085158;28;20020;-64
2022/07/27 04:34:17;;;;;;;0.20;0.20;;;;;;;16.21;87.41;99697.31;5085369;28;20088;-64
2022/07/27 04:36:42;;;;;;;0.20;0.20;;;;;;;16.29;88.59;99694.41;5085419;28;20028;-64
2022/07/27 04:39:09;;;;;;;0.20;0.20;;;;;;;16.35;88.81;99694.13;5085382;28;20035;-64
2022/07/27 04:41:34;;;;;;;0.20;0.20;;;;;;;16.44;89.50;99698.09;5085352;28;20028;-64
2022/07/27 04:43:59;;;;;;;0.20;0.20;;;;;;;16.50;90.12;99697.00;5085157;28;20021;-65
2022/07/27 04:46:26;;;;;;;0.20;0.20;;;;;;;16.49;90.19;99703.13;5085252;28;20025;-64
2022/07/27 04:48:51;;;;;;;0.20;0.20;;;;;;;16.54;90.70;99698.53;5085359;28;20088;-64
2022/07/27 04:51:17;;;;;;;0.20;0.20;;;;;;;16.57;89.79;99695.78;5084935;28;20029;-64
2022/07/27 04:53:43;;;;;;;0.22;0.22;;;;;;;16.67;89.33;99697.97;5084811;28;20029;-65
2022/07/27 04:56:08;;;;;;;0.20;0.20;;;;;;;16.66;88.36;99706.78;5085339;28;20039;-65
2022/07/27 04:58:34;;;;;;;0.20;0.20;;;;;;;16.75;88.79;99706.34;5085016;28;20036;-65
2022/07/27 05:00:59;;;;;;;0.20;0.20;;;;;;;16.87;88.33;99704.91;5084747;28;20020;-64
2022/07/27 05:03:25;;;;;;;0.20;0.20;;;;;;;16.98;88.65;99707.06;5084775;28;20020;-65
2022/07/27 05:05:51;;;;;;;0.20;0.20;;;;;;;16.99;89.35;99703.53;5084776;28;20050;-65
2022/07/27 05:08:16;;;;;;;0.20;0.20;;;;;;;17.20;89.87;99708.72;5084907;28;20057;-65
2022/07/27 05:10:42;;;;;;;0.20;0.20;;;;;;;17.39;90.57;99713.06;5083869;28;20031;-64
2022/07/27 05:13:07;;;;;;;0.20;0.20;;;;;;;17.49;91.79;99713.47;5084670;28;20056;-64
2022/07/27 05:15:33;;;;;;;0.20;0.20;;;;;;;17.58;90.96;99719.13;5085171;28;20020;-65
2022/07/27 05:17:58;;;;;;;0.20;0.20;;;;;;;17.71;90.06;99716.75;5084656;28;20053;-66
2022/07/27 05:20:24;;;;;;;0.20;0.20;;;;;;;17.96;92.21;99704.16;5085049;28;20090;-65
2022/07/27 05:22:50;;;;;;;0.20;0.20;;;;;;;18.49;95.26;99714.63;5084793;28;20024;-65
2022/07/27 05:25:15;;;;;;;0.20;0.20;;;;;;;19.29;97.35;99720.91;5084810;28;20025;-65
2022/07/27 05:27:41;;;;;;;0.20;0.20;;;;;;;20.17;97.19;99732.63;5084776;28;20073;-66
2022/07/27 05:30:07;;;;;;;0.10;0.10;;;;;;;21.22;100.00;99729.75;5084672;28;20025;-65
2022/07/27 05:32:33;;;;;;;0.20;0.20;;;;;;;22.09;98.71;99736.50;5084743;28;20020;-65
2022/07/27 05:34:58;;;;;;;0.20;0.20;;;;;;;22.74;91.04;99741.78;5084567;28;20077;-66
2022/07/27 05:37:24;;;;;;;0.10;0.10;;;;;;;23.35;94.30;99734.00;5084802;28;20016;-65
2022/07/27 05:39:49;;;;;;;0.10;0.10;;;;;;;23.58;95.68;99744.72;5084477;28;20369;-66
2022/07/27 05:42:14;;;;;;;0.10;0.10;;;;;;;24.05;99.23;99747.41;5084829;28;20242;-66
2022/07/27 05:44:40;;;;;;;0.10;0.10;;;;;;;24.51;95.37;99748.34;5084609;28;20036;-66
2022/07/27 05:47:05;;;;;;;0.25;0.25;;;;;;;24.99;97.16;99749.09;5084710;28;20443;-66
2022/07/27 05:49:30;;;;;;;0.10;0.10;;;;;;;25.31;92.14;99759.88;5084787;28;20024;-66
2022/07/27 05:51:56;;;;;;;0.10;0.10;;;;;;;25.57;91.92;99760.41;5083089;28;20051;-66
2022/07/27 05:54:21;;;;;;;0.10;0.10;;;;;;;25.60;87.65;99762.81;5083073;28;20072;-66
2022/07/27 05:56:46;;;;;;;0.10;0.10;;;;;;;25.57;87.02;99765.72;5085774;28;20118;-66
2022/07/27 05:59:12;;;;;;;0.10;0.10;;;;;;;25.21;84.84;99779.22;5088229;28;20024;-66
2022/07/27 06:01:38;;;;;;;2.72;1.50;;;;;;;24.91;84.98;99778.03;5087952;28;20096;-66
2022/07/27 06:04:04;;;;;;;0.10;0.10;;;;;;;24.97;87.86;99782.88;5088402;28;20031;-66
2022/07/27 06:09:14;;;;;;;3.38;1.75;;;;;;;25.24;81.91;99799.38;5087970;28;20028;-66
2022/07/27 06:11:40;;;;;;;0.22;0.22;;;;;;;24.86;79.67;99796.09;5086480;28;20025;-65
2022/07/27 06:14:06;;;;;;;0.10;0.10;;;;;;;24.51;77.03;99800.56;5087960;28;20039;-66
2022/07/27 06:16:31;;;;;;;0.10;0.10;;;;;;;24.59;84.38;99799.97;5087794;28;20107;-66
2022/07/27 06:18:56;;;;;;;0.10;0.10;;;;;;;24.81;85.04;99803.63;5087852;28;20020;-66
2022/07/27 06:21:26;;;;;;;0.10;0.10;;;;;;;25.09;85.04;99804.09;5087775;28;20028;-65
2022/07/27 06:23:53;;;;;;;0.10;0.10;;;;;;;25.47;83.86;99813.47;5087629;28;20028;-66
2022/07/27 06:26:18;;;;;;;0.10;0.10;;;;;;;25.30;80.33;99819.28;5087122;28;20085;-66
2022/07/27 06:28:43;;;;;;;0.10;0.10;;;;;;;24.67;76.14;99816.13;5086153;28;20482;-66
2022/07/27 06:31:09;;;;;;;0.20;0.20;;;;;;;24.35;77.52;99812.34;5087267;28;20024;-65
2022/07/27 06:33:34;;;;;;;0.40;0.40;;;;;;;24.42;72.83;99815.38;5087537;28;20047;-66
2022/07/27 06:36:00;;;;;;;0.10;0.10;;;;;;;23.94;70.83;99821.59;5087313;28;20024;-65
2022/07/27 06:38:26;;;;;;;0.10;0.10;;;;;;;24.05;76.27;99828.75;5087360;28;20052;-66
2022/07/27 06:40:52;;;;;;;0.10;0.10;;;;;;;23.97;74.98;99830.16;5087440;28;20031;-65
2022/07/27 06:43:23;;;;;;;0.10;0.10;;;;;;;24.01;78.93;99839.56;5087331;28;20460;-65
2022/07/27 06:45:48;;;;;;;0.47;0.47;;;;;;;24.06;77.06;99839.22;5087399;28;20050;-65
2022/07/27 06:48:14;;;;;;;0.32;0.32;;;;;;;24.09;79.30;99843.47;5086901;28;20107;-65
2022/07/27 06:50:40;;;;;;;0.10;0.10;;;;;;;24.19;79.35;99843.63;5087079;28;20028;-65
2022/07/27 06:53:06;;;;;;;0.10;0.10;;;;;;;23.96;73.63;99847.00;5086996;28;20251;-64
2022/07/27 06:55:31;;;;;;;0.15;0.15;;;;;;;23.87;76.60;99856.50;5086780;28;20045;-64
2022/07/27 06:57:57;;;;;;;0.20;0.20;;;;;;;23.40;75.05;99856.38;5086917;28;20027;-64
2022/07/27 07:00:22;;;;;;;0.10;0.10;;;;;;;22.75;76.60;99853.75;5086962;28;20024;-65
2022/07/27 07:02:57;;;;;;;0.10;0.10;;;;;;;22.47;72.93;99860.88;5086489;28;20492;-65
2022/07/27 07:05:23;;;;;;;0.52;0.52;;;;;;;22.11;72.38;99866.72;5086649;28;20032;-64
2022/07/27 07:07:48;;;;;;;0.10;0.10;;;;;;;21.66;70.82;99880.16;5085683;28;20031;-65
2022/07/27 07:10:14;;;;;;;0.20;0.20;;;;;;;21.39;72.98;99886.25;5086796;28;20042;-64
2022/07/27 07:12:40;;;;;;;0.10;0.10;;;;;;;21.25;73.04;99885.31;5086730;28;20021;-64
2022/07/27 07:15:06;;;;;;;0.13;0.13;;;;;;;20.96;72.85;99879.19;5086337;28;20107;-64
2022/07/27 07:17:32;;;;;;;0.20;0.20;;;;;;;20.77;70.20;99882.88;5086181;28;20028;-63
2022/07/27 07:19:57;;;;;;;0.10;0.10;;;;;;;20.73;71.50;99891.94;5086582;28;20407;-64
2022/07/27 07:22:24;;;;;;;0.20;0.20;;;;;;;20.50;70.44;99892.34;5086422;28;20058;-64
2022/07/27 07:24:50;;;;;;;0.20;0.20;;;;;;;20.31;70.65;99895.19;5086371;28;20080;-63
2022/07/27 07:27:18;;;;;;;0.10;0.10;;;;;;;20.35;70.50;99901.16;5086411;28;20120;-63
2022/07/27 07:29:43;;;;;;;0.20;0.20;;;;;;;20.51;72.75;99898.47;5086245;28;20021;-63
2022/07/27 07:32:09;;;;;;;0.20;0.20;;;;;;;20.63;72.65;99892.47;5086366;28;20047;-65
2022/07/27 07:34:34;;;;;;;0.20;0.20;;;;;;;20.62;71.37;99908.38;5086415;28;20028;-65
2022/07/27 07:36:59;;;;;;;0.10;0.10;;;;;;;20.51;73.42;99912.50;5084672;28;20029;-66
2022/07/27 07:39:25;;;;;;;0.20;0.20;;;;;;;20.46;75.14;99913.72;5085963;28;20119;-65
2022/07/27 07:41:52;;;;;;;0.20;0.20;;;;;;;20.29;70.82;99911.09;5086110;28;20047;-63
2022/07/27 07:44:17;;;;;;;0.20;0.20;;;;;;;20.03;71.80;99917.88;5086176;28;20482;-63
2022/07/27 07:46:43;;;;;;;0.20;0.20;;;;;;;19.69;71.18;99925.81;5085973;28;20047;-65
2022/07/27 07:49:09;;;;;;;0.20;0.20;;;;;;;19.44;72.87;99929.78;5085945;28;20033;-65
2022/07/27 07:51:34;;;;;;;0.20;0.20;;;;;;;19.21;73.01;99937.09;5086095;28;20044;-65
2022/07/27 07:54:00;;;;;;;0.20;0.20;;;;;;;19.15;75.10;99942.69;5085359;28;20043;-65
2022/07/27 07:56:26;;;;;;;0.10;0.10;;;;;;;19.17;74.83;99928.50;5086001;28;20047;-63
2022/07/27 07:58:51;;;;;;;0.47;0.47;;;;;;;19.08;71.08;99932.44;5085696;28;20025;-62
2022/07/27 08:01:17;;;;;;;0.20;0.20;;;;;;;18.85;72.40;99940.69;5085627;28;20387;-62
2022/07/27 08:03:42;;;;;;;0.20;0.20;;;;;;;18.71;71.59;99934.31;5085823;28;20024;-62
2022/07/27 08:06:07;;;;;;;0.20;0.20;;;;;;;18.60;71.21;99962.91;5085732;28;20036;-62
2022/07/27 08:08:33;;;;;;;0.20;0.20;;;;;;;18.48;72.12;99961.75;5085312;28;20059;-64
2022/07/27 08:10:58;;;;;;;0.20;0.20;;;;;;;18.56;73.44;99957.81;5085550;28;20037;-64
2022/07/27 08:13:24;;;;;;;0.20;0.20;;;;;;;18.50;72.14;99949.41;5085678;28;20020;-64
2022/07/27 08:15:51;;;;;;;0.20;0.20;;;;;;;18.47;71.05;99962.69;5085514;28;20032;-64
2022/07/27 08:18:17;;;;;;;0.20;0.20;;;;;;;18.37;71.45;99965.75;5085388;28;20074;-64
2022/07/27 08:20:43;;;;;;;0.20;0.20;;;;;;;18.42;72.13;99970.78;5085215;28;20043;-64
2022/07/27 08:23:09;;;;;;;0.20;0.20;;;;;;;18.35;71.42;99974.63;5085216;28;20040;-64
2022/07/27 08:25:34;;;;;;;0.20;0.20;;;;;;;18.52;73.16;99982.56;5085334;28;20025;-64
2022/07/27 08:27:59;;;;;;;0.20;0.20;;;;;;;18.58;72.19;99984.03;5085426;28;20027;-64
2022/07/27 08:30:25;;;;;;;0.20;0.20;;;;;;;18.56;71.59;99980.63;5085420;28;20047;-65
2022/07/27 08:32:57;;;;;;;0.20;0.20;;;;;;;18.55;72.99;99976.28;5084930;28;20070;-64
2022/07/27 08:35:23;;;;;;;0.30;0.30;;;;;;;18.66;72.73;99983.66;5085238;28;20016;-64
2022/07/27 08:37:49;;;;;;;0.20;0.20;;;;;;;18.70;72.28;99980.81;5084947;28;20028;-64
2022/07/27 08:40:15;;;;;;;0.20;0.20;;;;;;;18.72;72.08;99988.63;5085078;28;20050;-64
2022/07/27 08:42:42;;;;;;;0.20;0.20;;;;;;;18.76;71.91;99992.78;5085118;28;20027;-64
2022/07/27 08:45:09;;;;;;;0.20;0.20;;;;;;;18.84;71.32;100002.94;5085094;28;20258;-64
2022/07/27 08:47:35;;;;;;;0.20;0.20;;;;;;;18.82;71.58;99999.50;5084707;28;20065;-64
2022/07/27 08:50:02;;;;;;;0.20;0.20;;;;;;;18.89;73.38;100002.69;5084982;28;20020;-64
2022/07/27 08:52:28;;;;;;;0.20;0.20;;;;;;;18.93;71.00;100007.72;5084687;28;20028;-64
2022/07/27 08:54:54;;;;;;;0.20;0.20;;;;;;;18.90;71.40;100005.25;5084484;28;20062;-64
2022/07/27 08:57:20;;;;;;;0.20;0.20;;;;;;;18.98;72.83;100012.75;5084720;28;20047;-64
2022/07/27 08:59:45;;;;;;;0.20;0.20;;;;;;;19.21;73.24;100010.78;5084319;28;20379;-64
2022/07/27 09:02:13;;;;;;;0.20;0.20;;;;;;;19.46;72.50;100014.75;5084580;28;20032;-64
2022/07/27 09:04:40;;;;;;;0.20;0.20;;;;;;;19.56;72.06;100009.88;5084434;28;20025;-64
2022/07/27 09:07:05;;;;;;;0.20;0.20;;;;;;;19.83;72.82;100014.59;5084617;28;20027;-64
2022/07/27 09:09:43;;;;;;;0.20;0.20;;;;;;;20.17;68.89;100019.84;5084785;28;20024;-64
2022/07/27 09:12:09;;;;;;;2.13;1.95;;;;;;;20.53;69.90;100021.38;5084728;28;20425;-64
2022/07/27 09:14:37;;;;;;;0.20;0.20;;;;;;;21.32;70.02;100016.91;5084466;28;20460;-65
2022/07/27 09:17:22;;;;;;;0.20;0.20;;;;;;;22.75;70.37;100009.84;5084364;28;20024;-64
2022/07/27 09:19:53;;;;;;;0.15;0.15;;;;;;;23.94;63.08;100005.34;5084489;28;20053;-63
2022/07/27 09:22:51;;;;;;;0.10;0.10;;;;;;;24.82;63.18;100012.34;5084837;28;20032;-63
2022/07/27 09:25:20;;;;;;;0.10;0.10;;;;;;;25.16;61.72;100015.09;5084200;28;20425;-63
2022/07/27 09:27:47;;;;;;;0.10;0.10;;;;;;;25.06;61.64;100011.47;5084218;28;20032;-63
2022/07/27 09:30:15;;;;;;;0.60;0.60;;;;;;;24.96;61.89;100022.78;5084332;28;20027;-63
2022/07/27 09:32:57;;;;;;;0.10;0.10;;;;;;;25.60;63.33;100023.25;5087343;28;20044;-63
2022/07/27 09:35:28;;;;;;;0.10;0.10;;;;;;;25.84;60.34;100030.28;5087992;28;20114;-63
2022/07/27 09:38:15;;;;;;;0.10;0.10;;;;;;;25.92;61.36;100026.16;5088368;28;20032;-63
2022/07/27 09:40:40;;;;;;;0.20;0.20;;;;;;;26.29;57.57;100022.34;5088102;28;20054;-62
2022/07/27 09:43:11;;;;;;;0.10;0.10;;;;;;;26.01;57.86;100027.25;5088118;28;20024;-63
2022/07/27 09:45:39;;;;;;;0.10;0.10;;;;;;;25.40;57.34;100024.78;5088253;28;20127;-63
2022/07/27 09:48:15;;;;;;;0.15;0.15;;;;;;;25.04;59.58;100022.22;5087882;28;20036;-62
2022/07/27 09:50:45;;;;;;;0.10;0.10;;;;;;;24.67;61.20;100031.09;5087791;28;20544;-64
2022/07/27 09:53:12;;;;;;;0.10;0.10;;;;;;;24.41;59.89;100036.50;5087664;28;20048;-63
2022/07/27 09:55:38;;;;;;;0.10;0.10;;;;;;;24.34;56.91;100028.19;5086313;28;20051;-62
2022/07/27 09:58:03;;;;;;;0.15;0.15;;;;;;;23.94;55.71;100042.47;5087749;28;20017;-63
2022/07/27 10:00:29;;;;;;;0.10;0.10;;;;;;;23.79;58.98;100048.84;5087657;28;20020;-62
2022/07/27 10:02:55;;;;;;;0.20;0.20;;;;;;;23.69;61.78;100041.53;5087379;28;20062;-63
2022/07/27 10:05:21;;;;;;;0.13;0.13;;;;;;;23.58;62.72;100042.28;5087601;28;20025;-62
2022/07/27 10:07:47;;;;;;;0.10;0.10;;;;;;;23.30;58.59;100059.19;5087634;28;20016;-62
2022/07/27 10:10:14;;;;;;;0.10;0.10;;;;;;;22.78;58.88;100068.72;5086167;28;20375;-63
2022/07/27 10:12:43;;;;;;;0.20;0.20;;;;;;;22.45;58.76;100062.00;5087719;28;20020;-63
2022/07/27 10:15:09;;;;;;;0.20;0.20;;;;;;;22.02;59.75;100062.91;5087213;28;20419;-63
2022/07/27 10:17:36;;;;;;;0.17;0.17;;;;;;;21.61;57.24;100062.72;5085643;28;20035;-63
2022/07/27 10:20:10;;;;;;;0.20;0.20;;;;;;;21.53;58.20;100063.16;5087559;28;20013;-63
2022/07/27 10:22:50;;;;;;;0.10;0.10;;;;;;;21.76;60.71;100074.13;5087536;28;20035;-63
2022/07/27 10:25:15;;;;;;;0.20;0.20;;;;;;;21.78;59.88;100068.78;5087102;28;20054;-63
2022/07/27 10:27:41;;;;;;;0.13;0.13;;;;;;;21.81;59.62;100073.88;5087004;28;20044;-64
2022/07/27 10:30:06;;;;;;;0.20;0.20;;;;;;;21.55;57.05;100071.84;5087342;28;20029;-64
2022/07/27 10:32:33;;;;;;;0.20;0.20;;;;;;;21.32;58.47;100075.00;5086711;28;20064;-63
2022/07/27 10:35:00;;;;;;;0.20;0.20;;;;;;;21.77;62.13;100075.84;5085933;28;20388;-64
2022/07/27 10:37:28;;;;;;;0.20;0.20;;;;;;;22.42;54.28;100083.34;5087330;28;20020;-63
2022/07/27 10:40:33;;;;;;;0.20;0.20;;;;;;;22.80;57.37;100079.19;5087049;28;20047;-63
2022/07/27 10:42:42;;;;;;;0.13;0.13;;;;;;;23.19;54.93;100079.31;5086608;28;20043;-63
2022/07/27 10:45:17;;;;;;;0.20;0.20;;;;;;;23.75;56.88;100080.84;5086938;28;20028;-64
2022/07/27 10:47:45;;;;;;;0.20;0.20;;;;;;;24.15;48.98;100079.03;5086467;28;20025;-64
2022/07/27 10:50:11;;;;;;;0.20;0.20;;;;;;;24.18;52.32;100086.78;5086979;28;20031;-64
2022/07/27 10:52:40;;;;;;;0.10;0.10;;;;;;;24.51;54.84;100093.25;5086784;28;20072;-64
2022/07/27 10:55:07;;;;;;;0.60;0.60;;;;;;;24.97;49.44;100092.66;5086501;28;20040;-64
2022/07/27 10:57:35;;;;;;;0.10;0.10;;;;;;;24.93;47.36;100070.81;5085292;28;20052;-63
2022/07/27 11:00:07;;;;;;;0.10;0.10;;;;;;;24.55;47.07;100087.72;5086795;28;20021;-63
2022/07/27 11:02:41;;;;;;;0.20;0.20;;;;;;;24.31;49.09;100096.50;5086662;28;20024;-63
2022/07/27 11:05:08;;;;;;;0.10;0.10;;;;;;;24.19;49.01;100099.06;5086432;28;20088;-63
2022/07/27 11:07:33;;;;;;;0.20;0.20;;;;;;;23.90;47.37;100088.69;5086331;28;20476;-64
2022/07/27 11:10:00;;;;;;;0.20;0.20;;;;;;;23.40;48.32;100097.38;5086255;28;20024;-63
2022/07/27 11:12:29;;;;;;;0.10;0.10;;;;;;;23.03;47.90;100106.78;5086328;28;20080;-63
2022/07/27 11:14:57;;;;;;;0.13;0.13;;;;;;;22.99;50.32;100115.03;5086470;28;20098;-63
2022/07/27 11:17:24;;;;;;;0.10;0.10;;;;;;;22.77;47.04;100100.56;5086143;28;20499;-63
2022/07/27 11:19:58;;;;;;;0.20;0.20;;;;;;;22.46;48.14;100102.53;5085756;28;20029;-63
2022/07/27 11:22:38;;;;;;;0.10;0.10;;;;;;;22.22;46.76;100121.63;5086214;28;20082;-63
2022/07/27 11:25:04;;;;;;;0.20;0.20;;;;;;;22.01;49.76;100106.97;5086015;28;20024;-63
2022/07/27 11:27:30;;;;;;;0.20;0.20;;;;;;;22.39;51.46;100112.63;5086293;28;20071;-63
2022/07/27 11:29:56;;;;;;;0.20;0.20;;;;;;;22.72;51.81;100123.81;5085994;28;20048;-63
2022/07/27 11:32:22;;;;;;;0.20;0.20;;;;;;;22.86;48.39;100122.94;5085959;28;20043;-63
2022/07/27 11:34:47;;;;;;;0.20;0.20;;;;;;;22.92;46.88;100124.34;5086048;28;20024;-64